Randolph Air Force Base
KRND : rendu visible

Aérodrome :











RETROUVEZ-NOUS SUR...

 
LOGIN :

S'inscrire | Disclaimer

   EN    FR    IT 

 









Légende :    VFR   VFR Marginal   IFR   IFR Intensif   IFR Très Intensif
Visi : 
Plafond : 
>= 8 km
>= 3000ft
5 à 8 km
1000 à 3000 ft
1500m à 5 km
500 à 1000 ft
800 à 1500m
200 à 500 ft
< 800m
< 200 ft
Symboles :   Orages  Brouillard  Fortes neiges  Fortes précipitations  Vent > 20 kt







- Altitude de l'aérodrome : 761 ft


KRND - Randolph Air Force Base

DERNIER METAR :
  • 210156Z AUTO 14012KT 10SM CLR 28/21 A2996 RMK AO2 SLP137 T02840214 $

METARs EXPIRÉS :
  • 210056Z AUTO 15018G21KT 10SM CLR 30/22 A2993 RMK AO2 SLP126 T02970221 $
  • 202356Z AUTO 13016KT 10SM FEW044 SCT060 32/22 A2991 RMK AO2 SLP119 T03160220 10358 20316 53006 $

TAF AMD TAF KRND
Valide du 20 à 21h jusqu'au 21 à 23h UTC


202145Z 2021/2123 17010G25KT 9999 FEW040 QNH2988INS
BECMG 2105/2106 14008KT 9999 BKN013 OVC020 QNH2999INS
BECMG 2115/2116 15010G15KT 9999 FEW025 SCT040 QNH3000INS TX36/2021Z TN25/2112Z LAST NO AMDS AFT 2100 NEXT 2217
Pas de NOTAMs connus pour ce terrain.



MET'MAP, la Météo Aéronautique d'un coup d'oeil ! - Copyright ORBIFLY Décembre 2007 - Disclaimer

ORBIFLY MET'MAP TEAM :

Programmation & Développement : Alexandra Zaïnal
Conception & Développement : Baudouin d'Aumeries
Co-Programmation & Développement : Marc-Olivier Méhu
Soutien technique & logistique : Manuel Goepfert

Contact : metmap@orbifly.com




SOURCES & CREDITS :

   NOAA       Earth
Advisory